Sonic Adventure (DX): Boss Rankings

Records: Times | Rings | Scores | Races | Bosses | Freestyle
Leaders: Times | Rings | Scores | Races | Bosses | Freestyle | Overall
Rank Player Percent Points Date
1 Sonicspeedruner 98.0% 43 06-02-17
2 Gamepro011 96.5% 75 06-02-17
3 DarkPolarNight 94.2% 124 06-02-17
4 chainchumper 94.1% 126 06-02-17
5 Austinf 91.9% 173 06-02-17
6 Jawzun 88.7% 242 06-02-17
7 drminus 88.5% 247 06-02-17
8 Parax 86.7% 285 06-02-17
9 ike6252 86.3% 295 06-02-17
10 Coolfansonic 84.5% 333 06-02-17
11 Dashjump 84.1% 341 06-02-17
12 Avento128bits 83.8% 349 06-02-17
13 DarkspinesSonic 80.2% 425 06-02-17
14 TheRealShadnic 78.7% 458 06-02-17
15 THC98 78.2% 469 06-02-17
16 F-Man 76.2% 511 06-02-17
17 Marth 75.1% 536 06-02-17
18 Mariobutch 73.5% 569 06-02-17
19 yoshifan 73.4% 572 06-02-17
20 InferSaime 72.6% 590 06-02-17
21 PfoSonic 71.9% 605 06-02-17
22 HyperSonic7701 69.9% 648 06-02-17
23 RPGnutter 69.0% 667 06-02-17
24 Paragod 67.5% 699 06-02-17
25 mike89 67.1% 708 06-02-17
26 frankoredstrato 66.9% 713 06-02-17
27 sonicam 62.8% 800 06-02-17
28 Groudon199 62.6% 805 06-02-17
29 SadisticMystic 62.4% 809 06-02-17
30 xXMegaManXx 61.7% 824 06-02-17
31 Stefan 61.2% 836 06-02-17
32 Diamond 59.7% 868 06-02-17
33 Combo 57.5% 915 06-02-17
34 bertin 57.2% 922 06-02-17
35 SkyLights 54.5% 980 06-02-17
36 Arch 48.9% 1100 06-02-17
37 Fr3nZy 48.6% 1107 06-02-17
38 francisco 48.5% 1109 06-02-17
39 OmegaDJ 46.8% 1146 06-02-17
40 Andrea Ritsu 46.5% 1151 06-02-17
41 Omega Rafael Santos 45.3% 1178 06-02-17
42 P1 Pause 44.0% 1206 06-02-17
43 magnum12 41.7% 1256 06-02-17
44 VeritasDL 41.2% 1265 06-02-17
45 Auriman1 37.9% 1337 06-02-17
46 James_Bertolli 35.6% 1386 06-02-17
47 chaos shadow 35.5% 1389 06-02-17
48 Hunters13 34.2% 1417 06-02-17
49 teamblackarms 33.9% 1424 06-02-17
50 FuzZerd 32.9% 1444 06-02-17
51 Drakodan 32.6% 1451 06-02-17
52 Psymar 32.3% 1458 06-02-17
53 Cyan Ryan 31.8% 1468 06-02-17
54 Quartz 31.7% 1470 06-02-17
55 eggFL 31.5% 1476 06-02-17
56 Jerzia 30.8% 1491 06-02-17
57 GerbilSoft 30.7% 1493 06-02-17
58 BigAL49 30.5% 1497 06-02-17
59 elecmouse101 29.9% 1509 06-02-17
60 Nimrod 29.7% 1513 06-02-17
61 Webber3000 29.6% 1515 06-02-17
62 Thorn 29.6% 1516 06-02-17
63 videogamemaster777 29.4% 1520 06-02-17
64 Mo Player Banned 28.0% 1551 06-02-17
64 Turbos 28.0% 1551 06-02-17
66 Termon 26.9% 1574 06-02-17
67 Dave Cramer 26.1% 1592 06-02-17
68 Flying Fox 25.8% 1599 06-02-17
69 nuckrieg 24.7% 1621 06-02-17
70 buddychaos0415 24.6% 1624 06-02-17
71 Shadow Jacky 23.6% 1646 06-02-17
72 Cream147 21.2% 1697 06-02-17
73 supersonicfan 20.9% 1703 06-02-17
74 MiStEr_ShAoLiN 20.6% 1709 06-02-17
74 NintenDan 20.6% 1709 06-02-17
76 thewaytodawnnn 20.5% 1713 06-02-17
77 itsPersonnal 20.2% 1719 06-02-17
78 Aitamen 20.1% 1720 06-02-17
79 The T 19.9% 1725 06-02-17
80 Cybrax 19.9% 1726 06-02-17
81 supersonic465 19.7% 1729 06-02-17
82 SonicWinDX 19.3% 1738 06-02-17
83 Cruizer 18.6% 1753 06-02-17
84 VMU Player Banned 17.4% 1780 06-02-17
85 Game_Complete 16.9% 1790 06-02-17
86 The Great Lord Mick 16.6% 1797 06-02-17
87 GreatStar 15.5% 1819 06-02-17
87 Questionguy555 15.5% 1819 06-02-17
89 Spinballwizard 15.1% 1829 06-02-17
90 Sondow 14.4% 1844 06-02-17
91 sonicandamy Player Banned 14.0% 1853 06-02-17
92 Destroyer121121 13.7% 1858 06-02-17
93 GarnetPrincess 13.1% 1871 06-02-17
94 SonicAD 11.9% 1898 06-02-17
95 Don 11.3% 1910 06-02-17
96 Miles9999 10.9% 1919 06-02-17
97 SuperBlitzCraig 10.9% 1920 06-02-17
98 Siavash Tazari 10.8% 1922 06-02-17
99 Cutiefox 10.0% 1938 06-02-17
99 Psyknux 10.0% 1938 06-02-17
101 Werey 9.6% 1947 06-02-17
102 knuckles_sonic8 9.6% 1948 06-02-17
103 joecoolgames 9.4% 1952 06-02-17
104 mauserman 9.1% 1958 06-02-17
105 Badlex727 8.8% 1964 06-02-17
106 EngiNerd 8.8% 1965 06-02-17
107 Sonic Singularity 8.6% 1969 06-02-17
108 dShadow 8.3% 1975 06-02-17
109 Hipertails12 8.2% 1977 06-02-17
110 Aiko 8.1% 1979 06-02-17
111 N 8.1% 1980 06-02-17
112 Shanekilz 7.9% 1984 06-02-17
113 Therio 7.5% 1993 06-02-17
114 Mastakirby 7.3% 1996 06-02-17
115 TommyeAsY 6.9% 2005 06-02-17
116 sonic29887 6.7% 2009 06-02-17
116 TheChaosEmeraIds 6.7% 2009 06-02-17
118 FocusSight64 6.6% 2011 06-02-17
119 Chao_Fan 6.4% 2017 06-02-17
120 djmat 6.0% 2025 06-02-17
121 HHNNBBHHN 5.9% 2027 06-02-17
122 paulie9990 5.8% 2029 06-02-17
122 tal39h 5.8% 2029 06-02-17
124 Sogeking 5.3% 2039 06-02-17
125 Brian_pso 4.9% 2048 06-02-17
126 Chawkk 4.9% 2049 06-02-17
127 MK 4.5% 2057 06-02-17
128 SilvertheAlmighty 4.5% 2058 06-02-17
128 SpinDashMaster 4.5% 2058 06-02-17
130 MastaToken 4.1% 2066 06-02-17
131 Sonique Hedgehog 3.8% 2071 06-02-17
131 SpiritDragon1995 3.8% 2071 06-02-17
133 KinkyCadence 3.5% 2078 06-02-17
134 PsyBorg 3.4% 2081 06-02-17
135 Mad Andy 3.3% 2082 06-02-17
136 FSSRandomvids 3.2% 2084 06-02-17
137 koinu93 2.9% 2092 06-02-17
138 Rolken 2.8% 2093 06-02-17
138 Xia 2.8% 2093 06-02-17
140 andres430 2.5% 2100 06-02-17
141 crazy1993 2.2% 2107 06-02-17
141 dabestgamer 2.2% 2107 06-02-17
141 shadowblast63 Player Banned 2.2% 2107 06-02-17
144 Illidan 1.9% 2112 06-02-17
145 Richied 1.9% 2113 06-02-17
146 DanielTheFalcon 1.7% 2117 06-02-17
147 gamer1245 1.7% 2118 06-02-17
148 Iwannabelink 1.6% 2119 06-02-17
149 niscool 1.3% 2125 06-02-17
149 oTaiIilLsS 1.3% 2125 06-02-17
151 soniccoloursunleashed 1.3% 2126 06-02-17
152 ieatatsonic 1.1% 2131 06-02-17
152 Redd 1.1% 2131 06-02-17
154 Lil_Dude 0.8% 2137 06-02-17
154 LinksDarkArrows 0.8% 2137 06-02-17
156 JamminX42 0.5% 2144 06-02-17
157 Cbwade15 0.4% 2145 06-02-17
158 neaolas 0.3% 2147 06-02-17
159 BlankTH 0.2% 2150 06-02-17
160 Heroes_Hater 0.1% 2151 06-02-17
161 S-MS32X-S 0.0% 2153 06-02-17
162 KaM Mark MaK 0.0% 2155 06-02-17
162 MegabombBlade 0.0% 2155 06-02-17

This page is using the New Data Table System. [FUTURE]

Game ID: 3 | Category ID: 6
Hits: 4,582 | Hits This Month: 14 | DB Calls: 24 | Mem Usage: 5.35 MB | Time: 0.09s | Printable

The Sonic Center v3.9
Copyright 2003-2011 by The Sonic Center Team.